Time;durP1;ratioP1;P1;durP2;ratioP2;P2;SDS_P1;SDS_P2;PMS_P1;PMS_P2;Temp;Humidity;BMP_temperature;BMP_pressure;BME280_temperature;BME280_humidity;BME280_pressure;Samples;Min_cycle;Max_cycle;Signal;HPM_P1;HPM_P2
2022/03/25 00:02:07;;;;;;;17.07;9.53;;;;;;;11.58;34.65;-24140.47;5031457;28;20178;-68
2022/03/25 00:04:33;;;;;;;15.63;9.03;;;;;;;11.48;34.24;-24137.63;5031817;28;20183;-69
2022/03/25 00:06:58;;;;;;;14.33;9.17;;;;;;;11.84;34.94;-24147.78;4986884;28;20199;-69
2022/03/25 00:09:24;;;;;;;18.08;9.45;;;;;;;11.95;34.32;-24150.75;5012845;28;20184;-68
2022/03/25 00:11:50;;;;;;;13.37;8.67;;;;;;;11.80;34.31;-24146.66;5012175;28;20287;-69
2022/03/25 00:14:16;;;;;;;13.60;8.87;;;;;;;11.57;34.58;-24140.03;5011792;28;20183;-70
2022/03/25 00:16:42;;;;;;;15.60;8.07;;;;;;;11.10;35.19;-24127.06;5011937;28;20196;-69
2022/03/25 00:19:08;;;;;;;15.83;8.73;;;;;;;11.60;35.42;-24140.88;5012212;28;20168;-69
2022/03/25 00:21:35;;;;;;;12.37;8.53;;;;;;;11.15;35.74;-24128.34;5024528;28;20195;-70
2022/03/25 00:24:00;;;;;;;17.63;9.30;;;;;;;11.07;35.67;-24126.38;5029647;28;20191;-69
2022/03/25 00:26:26;;;;;;;17.30;8.50;;;;;;;11.21;36.16;-24130.03;5031779;28;20517;-68
2022/03/25 00:28:52;;;;;;;15.10;9.00;;;;;;;10.71;36.50;-24116.06;5031513;28;20286;-69
2022/03/25 00:31:17;;;;;;;20.43;9.07;;;;;;;11.06;36.22;-24125.94;5031034;28;20178;-70
2022/03/25 00:33:44;;;;;;;13.70;8.43;;;;;;;11.01;36.56;-24124.69;5031207;28;20179;-70
2022/03/25 00:36:10;;;;;;;12.77;9.00;;;;;;;10.47;37.13;-24109.59;5031428;28;20198;-70
2022/03/25 00:38:36;;;;;;;16.40;9.03;;;;;;;10.50;36.64;-24110.44;5031576;28;20179;-69
2022/03/25 00:41:06;;;;;;;16.97;8.87;;;;;;;10.71;36.36;-24116.06;5031873;28;20565;-70
2022/03/25 00:43:34;;;;;;;15.20;9.57;;;;;;;10.75;37.00;-24117.34;5031087;28;20179;-71
2022/03/25 00:46:00;;;;;;;15.37;9.00;;;;;;;10.57;36.72;-24112.41;5031828;28;20237;-70
2022/03/25 00:48:27;;;;;;;14.93;9.07;;;;;;;10.91;37.16;-24121.72;5031326;28;20171;-69
2022/03/25 00:50:54;;;;;;;16.97;9.57;;;;;;;10.68;37.07;-24115.22;5031525;28;20167;-70
2022/03/25 00:53:20;;;;;;;18.13;9.50;;;;;;;10.41;37.28;-24107.75;5031346;28;20175;-70
2022/03/25 00:55:45;;;;;;;14.83;9.70;;;;;;;10.76;37.58;-24117.47;5034710;28;20203;-70
2022/03/25 00:58:11;;;;;;;15.07;8.90;;;;;;;10.64;37.83;-24114.38;5036187;28;20195;-70
2022/03/25 01:00:37;;;;;;;13.30;8.50;;;;;;;10.24;37.89;-24103.09;5030779;28;20235;-70
2022/03/25 01:03:03;;;;;;;19.67;9.07;;;;;;;10.50;38.29;-24110.28;5025203;28;20183;-70
2022/03/25 01:05:29;;;;;;;18.43;9.03;;;;;;;10.42;38.90;-24108.16;5034949;28;20284;-69
2022/03/25 01:07:55;;;;;;;19.63;9.20;;;;;;;9.74;41.42;-24089.25;5035728;28;20194;-70
2022/03/25 01:10:21;;;;;;;17.07;9.47;;;;;;;10.26;39.27;-24103.66;5034573;28;20171;-70
2022/03/25 01:12:46;;;;;;;13.83;8.90;;;;;;;9.93;38.67;-24094.47;5035403;28;20187;-70
2022/03/25 01:15:12;;;;;;;14.90;8.60;;;;;;;10.06;38.19;-24098.00;5034629;28;20250;-68
2022/03/25 01:17:37;;;;;;;16.73;9.03;;;;;;;10.27;38.04;-24103.94;5034853;28;20199;-70
2022/03/25 01:20:03;;;;;;;18.43;9.73;;;;;;;10.60;37.66;-24113.25;5033158;28;20187;-70
2022/03/25 01:22:28;;;;;;;15.07;9.27;;;;;;;10.89;37.30;-24121.16;5032981;28;20203;-70
2022/03/25 01:24:54;;;;;;;21.00;9.70;;;;;;;10.91;37.68;-24121.84;5023082;28;20194;-70
2022/03/25 01:27:22;;;;;;;13.53;9.40;;;;;;;10.49;37.65;-24110.16;5034299;28;20237;-71
2022/03/25 01:29:47;;;;;;;15.93;9.87;;;;;;;10.50;37.59;-24110.44;5034374;28;20266;-70
2022/03/25 01:32:12;;;;;;;15.07;9.60;;;;;;;10.75;37.90;-24117.34;5034455;28;20258;-70
2022/03/25 01:34:38;;;;;;;18.53;9.70;;;;;;;10.61;38.11;-24113.53;5036511;28;20191;-70
2022/03/25 01:37:04;;;;;;;15.37;9.67;;;;;;;10.46;38.76;-24109.16;5034244;28;20203;-70
2022/03/25 01:39:29;;;;;;;20.00;9.53;;;;;;;10.29;38.62;-24104.50;5034165;28;20230;-68
2022/03/25 01:41:55;;;;;;;17.93;9.47;;;;;;;10.41;38.89;-24107.88;5033002;28;20233;-70
2022/03/25 01:44:28;;;;;;;13.87;9.10;;;;;;;10.52;38.86;-24110.84;5033685;28;20721;-69
2022/03/25 01:46:55;;;;;;;15.17;9.07;;;;;;;10.49;38.98;-24110.16;5033334;28;20573;-67
2022/03/25 01:49:21;;;;;;;18.97;9.83;;;;;;;10.13;38.85;-24099.97;5033486;28;20163;-69
2022/03/25 01:51:50;;;;;;;12.53;9.33;;;;;;;10.47;39.17;-24109.59;5033604;28;20593;-69
2022/03/25 01:54:24;;;;;;;15.30;9.23;;;;;;;10.11;39.55;-24099.56;5033686;28;20183;-69
2022/03/25 01:57:02;;;;;;;15.93;9.20;;;;;;;10.44;39.13;-24108.59;5033409;28;20250;-68
2022/03/25 01:59:28;;;;;;;17.73;9.93;;;;;;;9.93;39.43;-24094.34;5033401;28;20673;-70
2022/03/25 02:01:57;;;;;;;17.80;8.73;;;;;;;9.90;39.84;-24093.47;5032920;28;20673;-70
2022/03/25 02:04:24;;;;;;;14.93;9.17;;;;;;;9.64;40.35;-24086.44;5033421;28;20254;-70
2022/03/25 02:06:50;;;;;;;17.47;9.47;;;;;;;9.97;40.75;-24095.47;5032426;28;20222;-68
2022/03/25 02:09:16;;;;;;;21.40;9.67;;;;;;;9.41;40.93;-24079.78;5032975;28;20259;-70
2022/03/25 02:11:42;;;;;;;14.50;9.27;;;;;;;9.66;42.41;-24086.97;5038365;28;20183;-69
2022/03/25 02:14:09;;;;;;;17.87;9.63;;;;;;;9.58;41.76;-24084.72;5014603;28;20180;-70
2022/03/25 02:16:42;;;;;;;15.63;9.77;;;;;;;9.08;42.43;-24070.59;5031549;28;20622;-69
2022/03/25 02:19:10;;;;;;;17.73;9.10;;;;;;;9.38;42.94;-24079.06;5033650;28;20195;-70
2022/03/25 02:21:41;;;;;;;15.53;8.87;;;;;;;8.91;42.87;-24065.94;5033449;28;20183;-70
2022/03/25 02:24:08;;;;;;;16.53;9.40;;;;;;;8.86;42.81;-24064.66;5033263;28;20179;-70
2022/03/25 02:26:35;;;;;;;14.93;8.97;;;;;;;9.16;42.34;-24072.84;5033028;28;20306;-70
2022/03/25 02:29:00;;;;;;;18.57;9.30;;;;;;;9.31;42.76;-24077.25;5033441;28;20612;-70
2022/03/25 02:31:27;;;;;;;15.70;9.13;;;;;;;8.83;43.36;-24063.66;5034354;28;20189;-70
2022/03/25 02:34:04;;;;;;;15.67;8.90;;;;;;;9.12;43.44;-24071.72;5034613;28;20197;-71
2022/03/25 02:36:41;;;;;;;14.87;8.87;;;;;;;9.11;43.84;-24071.59;5015934;28;20207;-70
2022/03/25 02:39:10;;;;;;;11.83;8.17;;;;;;;8.97;44.59;-24067.47;5033310;28;20658;-71
2022/03/25 02:41:38;;;;;;;17.43;9.03;;;;;;;8.76;45.46;-24061.69;5033260;28;20187;-71
2022/03/25 02:44:05;;;;;;;16.57;9.07;;;;;;;8.77;45.78;-24061.97;5033103;28;20171;-70
2022/03/25 02:46:31;;;;;;;13.47;8.40;;;;;;;8.71;45.23;-24060.25;5032771;28;20179;-70
2022/03/25 02:48:56;;;;;;;13.50;9.23;;;;;;;8.39;45.45;-24051.34;5032930;28;20182;-70
2022/03/25 02:51:22;;;;;;;16.80;8.67;;;;;;;8.50;45.23;-24054.31;5033074;28;20199;-70
2022/03/25 02:53:47;;;;;;;15.20;8.80;;;;;;;8.26;45.41;-24047.81;5032550;28;20240;-69
2022/03/25 02:56:13;;;;;;;14.67;8.80;;;;;;;8.51;45.32;-24054.59;5032874;28;20692;-69
2022/03/25 02:58:38;;;;;;;14.87;8.97;;;;;;;8.28;45.39;-24048.38;5014964;28;20631;-69
2022/03/25 03:01:06;;;;;;;17.73;9.00;;;;;;;8.19;45.90;-24045.81;5032532;28;20179;-70
2022/03/25 03:03:32;;;;;;;15.50;9.30;;;;;;;8.18;45.41;-24045.53;5032508;28;20163;-69
2022/03/25 03:05:59;;;;;;;14.67;8.67;;;;;;;8.44;45.56;-24052.78;5032794;28;20231;-68
2022/03/25 03:08:25;;;;;;;18.40;9.07;;;;;;;8.69;45.46;-24059.69;5032709;28;20199;-70
2022/03/25 03:10:50;;;;;;;13.83;8.90;;;;;;;8.58;45.61;-24056.72;5032634;28;20229;-70
2022/03/25 03:13:16;;;;;;;16.17;8.70;;;;;;;8.60;45.95;-24057.28;5032890;28;20175;-68
2022/03/25 03:15:41;;;;;;;16.70;8.63;;;;;;;8.09;46.12;-24042.84;5032202;28;20182;-69
2022/03/25 03:18:07;;;;;;;14.53;8.10;;;;;;;8.24;46.32;-24047.09;5031672;28;20168;-70
2022/03/25 03:20:32;;;;;;;15.27;8.50;;;;;;;8.05;46.14;-24041.72;5032858;28;20183;-69
2022/03/25 03:22:58;;;;;;;14.13;8.67;;;;;;;8.01;46.69;-24040.72;5032821;28;20623;-69
2022/03/25 03:25:27;;;;;;;12.43;8.07;;;;;;;8.15;47.26;-24044.69;5037547;28;20187;-69
2022/03/25 03:27:54;;;;;;;13.53;9.00;;;;;;;8.13;47.24;-24044.00;5014766;28;20245;-68
2022/03/25 03:30:19;;;;;;;15.47;8.73;;;;;;;7.99;46.61;-24040.31;5031964;28;20179;-69
2022/03/25 03:32:45;;;;;;;15.60;9.07;;;;;;;7.97;46.24;-24039.72;5032048;28;20183;-70
2022/03/25 03:35:11;;;;;;;15.73;9.13;;;;;;;8.20;46.95;-24046.09;5032536;28;20586;-71
2022/03/25 03:37:42;;;;;;;15.53;9.00;;;;;;;8.23;45.99;-24046.81;5032064;28;20199;-70
2022/03/25 03:40:09;;;;;;;13.57;8.90;;;;;;;8.49;45.43;-24054.03;5032137;28;20176;-70
2022/03/25 03:42:35;;;;;;;13.80;8.83;;;;;;;8.15;45.36;-24044.56;5032426;28;20297;-70
2022/03/25 03:45:01;;;;;;;17.30;9.40;;;;;;;8.73;44.76;-24060.97;5032165;28;20631;-71
2022/03/25 03:47:26;;;;;;;16.80;9.67;;;;;;;8.81;45.03;-24063.25;5032115;28;20171;-70
2022/03/25 03:49:52;;;;;;;13.77;8.83;;;;;;;8.83;44.14;-24063.81;5032143;28;20222;-69
2022/03/25 03:52:17;;;;;;;14.50;8.53;;;;;;;8.62;44.40;-24057.88;5032142;28;20179;-69
2022/03/25 03:54:43;;;;;;;16.90;9.00;;;;;;;8.86;43.90;-24064.66;5032490;28;20190;-71
2022/03/25 03:57:08;;;;;;;19.80;9.03;;;;;;;8.94;44.54;-24066.63;5011553;28;20210;-70
2022/03/25 03:59:35;;;;;;;14.90;9.60;;;;;;;8.64;43.89;-24058.28;5033891;28;20179;-70
2022/03/25 04:02:00;;;;;;;15.87;9.17;;;;;;;8.80;42.74;-24062.81;5033451;28;20187;-69
2022/03/25 04:04:25;;;;;;;20.13;9.63;;;;;;;9.53;42.50;-24083.16;5016939;28;20273;-69
2022/03/25 04:06:51;;;;;;;16.13;8.73;;;;;;;9.04;43.08;-24069.59;5031680;28;20253;-70
2022/03/25 04:09:16;;;;;;;16.97;9.23;;;;;;;8.98;43.79;-24067.91;5032017;28;20241;-69
2022/03/25 04:11:42;;;;;;;15.50;9.17;;;;;;;9.04;42.81;-24069.47;5034232;28;20170;-71
2022/03/25 04:14:07;;;;;;;16.20;9.23;;;;;;;9.15;42.64;-24072.56;5033768;28;20257;-70
2022/03/25 04:16:33;;;;;;;19.40;9.83;;;;;;;9.42;43.26;-24080.06;5033577;28;20214;-71
2022/03/25 04:18:58;;;;;;;20.90;9.70;;;;;;;9.36;42.70;-24078.38;5032518;28;20183;-70
2022/03/25 04:21:24;;;;;;;17.73;9.43;;;;;;;9.06;43.42;-24070.16;5034012;28;20187;-71
2022/03/25 04:23:50;;;;;;;15.27;8.90;;;;;;;9.26;43.31;-24075.81;5036352;28;20190;-70
2022/03/25 04:26:15;;;;;;;13.33;9.37;;;;;;;9.36;42.99;-24078.38;5035995;28;20195;-70
2022/03/25 04:28:41;;;;;;;16.70;9.73;;;;;;;9.35;43.23;-24078.22;5033828;28;20186;-69
2022/03/25 04:31:07;;;;;;;17.17;9.27;;;;;;;9.38;43.22;-24078.94;5038549;28;20197;-69
2022/03/25 04:33:34;;;;;;;17.80;10.00;;;;;;;9.45;42.84;-24080.91;5038229;28;20187;-67
2022/03/25 04:36:01;;;;;;;24.43;10.10;;;;;;;9.40;43.27;-24079.50;5038028;28;20214;-68
2022/03/25 04:38:26;;;;;;;19.83;10.17;;;;;;;9.42;43.29;-24080.22;5037288;28;20183;-70
2022/03/25 04:40:52;;;;;;;14.93;9.27;;;;;;;8.90;43.73;-24065.66;5019755;28;20673;-68
2022/03/25 04:43:17;;;;;;;13.70;9.23;;;;;;;9.52;43.28;-24083.03;5038648;28;20186;-68
2022/03/25 04:45:43;;;;;;;16.37;10.13;;;;;;;9.44;43.60;-24080.63;5019074;28;20202;-69
2022/03/25 04:48:10;;;;;;;18.30;9.87;;;;;;;9.46;43.42;-24081.34;5019712;28;20183;-68
2022/03/25 04:50:39;;;;;;;19.73;9.20;;;;;;;9.36;43.88;-24078.50;5038319;28;20277;-68
2022/03/25 04:53:05;;;;;;;19.53;9.97;;;;;;;9.46;43.82;-24081.19;5039614;28;20210;-69
2022/03/25 04:55:38;;;;;;;17.97;10.17;;;;;;;9.54;43.49;-24083.59;5038196;28;20266;-69
2022/03/25 04:58:06;;;;;;;17.70;10.27;;;;;;;9.40;43.15;-24079.63;5040584;28;20178;-70
2022/03/25 05:00:32;;;;;;;18.70;10.37;;;;;;;9.44;43.92;-24080.63;5041500;28;20565;-69
2022/03/25 05:02:57;;;;;;;17.53;9.93;;;;;;;8.62;42.67;-24057.72;5036771;28;20187;-70
2022/03/25 05:05:22;;;;;;;15.40;9.93;;;;;;;9.84;42.48;-24091.94;5036627;28;20317;-69
2022/03/25 05:07:50;;;;;;;17.17;9.97;;;;;;;9.74;42.09;-24089.25;5036905;28;20183;-68
2022/03/25 05:10:16;;;;;;;20.67;9.50;;;;;;;9.63;42.62;-24086.13;5040603;28;20198;-69
2022/03/25 05:12:42;;;;;;;18.47;10.07;;;;;;;9.93;42.12;-24094.34;5036897;28;20184;-69
2022/03/25 05:15:08;;;;;;;20.40;9.40;;;;;;;9.94;42.05;-24094.75;5036189;28;20197;-70
2022/03/25 05:17:33;;;;;;;19.10;9.10;;;;;;;9.12;42.02;-24071.88;5037266;28;20203;-71
2022/03/25 05:20:04;;;;;;;21.60;10.03;;;;;;;10.36;41.89;-24106.34;5036854;28;20237;-70
2022/03/25 05:22:29;;;;;;;16.37;9.67;;;;;;;10.48;41.85;-24109.72;5037287;28;20187;-70
2022/03/25 05:24:55;;;;;;;17.13;9.57;;;;;;;10.48;41.95;-24109.88;5036553;28;20229;-71
2022/03/25 05:27:21;;;;;;;18.83;9.57;;;;;;;10.65;43.58;-24114.53;5036351;28;20219;-64
2022/03/25 05:29:47;;;;;;;22.47;10.17;;;;;;;10.70;43.78;-24115.78;5026457;28;20198;-65
2022/03/25 05:32:13;;;;;;;17.97;9.90;;;;;;;10.55;43.30;-24111.84;5036598;28;20222;-63
2022/03/25 05:34:39;;;;;;;13.87;9.13;;;;;;;10.71;42.89;-24116.06;5031860;28;20182;-64
2022/03/25 05:37:06;;;;;;;16.97;9.20;;;;;;;11.23;42.27;-24130.59;5033511;28;20203;-65
2022/03/25 05:39:32;;;;;;;18.23;9.33;;;;;;;11.03;41.56;-24125.09;5035595;28;20563;-64
2022/03/25 05:41:58;;;;;;;18.90;9.70;;;;;;;11.48;41.27;-24137.78;5033788;28;20619;-64
2022/03/25 05:44:23;;;;;;;19.27;9.20;;;;;;;11.28;40.72;-24132.16;5032934;28;20290;-67
2022/03/25 05:46:49;;;;;;;22.10;9.47;;;;;;;11.43;40.16;-24136.38;5033751;28;20643;-64
2022/03/25 05:49:14;;;;;;;19.60;9.98;;;;;;;11.97;40.92;-24151.16;5034022;28;20184;-63
2022/03/25 05:51:40;;;;;;;14.07;9.13;;;;;;;12.13;40.30;-24155.81;5032493;28;20720;-64
2022/03/25 05:54:05;;;;;;;14.60;9.17;;;;;;;12.24;39.65;-24158.91;5035166;28;20179;-64
2022/03/25 05:56:31;;;;;;;21.80;9.02;;;;;;;12.34;40.19;-24161.72;5035128;28;20206;-63
2022/03/25 05:58:57;;;;;;;19.08;9.38;;;;;;;12.59;40.09;-24168.63;5036332;28;20222;-64
2022/03/25 06:01:23;;;;;;;17.77;8.95;;;;;;;12.03;40.68;-24153.00;5034868;28;20186;-64
2022/03/25 06:03:48;;;;;;;16.45;9.30;;;;;;;12.66;39.76;-24170.59;5036590;28;20642;-64
2022/03/25 06:06:14;;;;;;;14.98;8.95;;;;;;;12.87;39.57;-24176.34;5034949;28;20226;-65
2022/03/25 06:08:40;;;;;;;15.98;8.80;;;;;;;12.76;39.22;-24173.25;5034638;28;20183;-65
2022/03/25 06:11:06;;;;;;;16.17;8.90;;;;;;;13.00;38.04;-24180.00;5035209;28;20273;-65
2022/03/25 06:13:31;;;;;;;16.17;9.15;;;;;;;13.15;38.19;-24184.22;5034727;28;20288;-64
2022/03/25 06:15:57;;;;;;;15.25;8.88;;;;;;;12.99;38.22;-24179.72;5033046;28;20183;-63
2022/03/25 06:18:23;;;;;;;20.60;8.93;;;;;;;12.97;38.47;-24179.16;5035520;28;20175;-65
2022/03/25 06:20:48;;;;;;;16.20;8.63;;;;;;;13.60;38.07;-24196.59;5036128;28;20622;-64
2022/03/25 06:23:14;;;;;;;16.48;9.00;;;;;;;13.57;37.22;-24195.88;5035971;28;20634;-65
2022/03/25 06:25:41;;;;;;;16.15;9.20;;;;;;;13.26;37.89;-24187.19;5034683;28;20179;-64
2022/03/25 06:28:07;;;;;;;12.82;9.20;;;;;;;13.68;36.86;-24198.97;5034901;28;20223;-64
2022/03/25 06:30:35;;;;;;;15.85;9.50;;;;;;;13.84;36.06;-24203.19;5035326;28;20179;-64
2022/03/25 06:33:02;;;;;;;16.77;8.68;;;;;;;14.01;36.61;-24208.09;5033731;28;20197;-65
2022/03/25 06:35:28;;;;;;;21.15;9.68;;;;;;;13.79;36.10;-24201.78;5036315;28;20251;-66
2022/03/25 06:37:53;;;;;;;23.42;9.57;;;;;;;14.24;35.79;-24214.28;5034333;28;20202;-65
2022/03/25 06:40:20;;;;;;;17.77;9.38;;;;;;;13.86;35.76;-24203.88;5034878;28;20253;-64
2022/03/25 06:42:45;;;;;;;16.23;9.68;;;;;;;14.05;35.82;-24209.09;5034011;28;20213;-64
2022/03/25 06:45:13;;;;;;;21.13;9.40;;;;;;;14.06;35.20;-24209.34;5035922;28;20207;-67
2022/03/25 06:47:39;;;;;;;23.08;10.40;;;;;;;13.94;35.02;-24206.00;5035111;28;20278;-65
2022/03/25 06:50:06;;;;;;;23.70;9.75;;;;;;;14.31;34.11;-24216.38;5035299;28;20743;-66
2022/03/25 06:52:32;;;;;;;24.60;10.30;;;;;;;14.80;34.27;-24229.84;5035559;28;20635;-65
2022/03/25 06:54:58;;;;;;;20.63;9.75;;;;;;;14.76;33.96;-24228.84;5034273;28;20190;-64
2022/03/25 06:57:24;;;;;;;23.15;10.52;;;;;;;14.95;33.87;-24234.19;5034745;28;20212;-64
2022/03/25 06:59:50;;;;;;;24.00;9.80;;;;;;;14.95;33.87;-24234.19;5035552;28;20182;-64
2022/03/25 07:02:16;;;;;;;16.80;9.52;;;;;;;14.67;33.63;-24226.19;5015443;28;20178;-64
2022/03/25 07:04:42;;;;;;;19.35;9.15;;;;;;;14.94;35.34;-24233.75;5032588;28;20187;-64
2022/03/25 07:07:09;;;;;;;14.60;8.85;;;;;;;15.43;35.20;-24247.34;5015823;28;20270;-65
2022/03/25 07:09:38;;;;;;;15.65;9.23;;;;;;;15.64;39.39;-24253.22;5035248;28;20721;-65
2022/03/25 07:12:04;;;;;;;19.45;9.65;;;;;;;15.28;35.11;-24243.16;5035310;28;20190;-64
2022/03/25 07:14:29;;;;;;;21.83;10.07;;;;;;;15.77;34.84;-24256.72;5036161;28;20302;-64
2022/03/25 07:16:55;;;;;;;20.20;10.15;;;;;;;15.71;35.28;-24255.19;5034682;28;20289;-64
2022/03/25 07:19:25;;;;;;;22.40;10.20;;;;;;;16.02;34.09;-24263.72;5035223;28;20179;-64
2022/03/25 07:21:54;;;;;;;18.65;9.68;;;;;;;16.13;33.89;-24266.66;5034684;28;20190;-64
2022/03/25 07:24:21;;;;;;;19.02;10.25;;;;;;;15.90;33.67;-24260.50;5034629;28;20179;-64
2022/03/25 07:26:47;;;;;;;22.73;10.25;;;;;;;15.88;34.00;-24259.94;5034490;28;20180;-63
2022/03/25 07:29:13;;;;;;;17.48;9.15;;;;;;;16.16;33.13;-24267.50;5035689;28;20191;-64
2022/03/25 07:31:38;;;;;;;16.98;9.88;;;;;;;16.43;33.37;-24274.91;5034115;28;20190;-65
2022/03/25 07:34:04;;;;;;;24.08;10.10;;;;;;;16.10;33.02;-24265.81;5034533;28;20182;-65
2022/03/25 07:36:29;;;;;;;21.70;9.98;;;;;;;16.19;33.23;-24268.34;5034964;28;20207;-65
2022/03/25 07:38:55;;;;;;;21.33;10.57;;;;;;;16.62;31.30;-24280.38;5034333;28;20273;-63
2022/03/25 07:41:21;;;;;;;24.52;10.48;;;;;;;16.62;31.24;-24280.22;5033976;28;20214;-65
2022/03/25 07:43:46;;;;;;;21.73;10.30;;;;;;;16.60;31.21;-24279.81;5016921;28;20197;-64
2022/03/25 07:46:12;;;;;;;20.63;10.43;;;;;;;16.82;31.51;-24285.81;5034983;28;20189;-65
2022/03/25 07:48:37;;;;;;;21.40;10.32;;;;;;;17.20;30.82;-24296.28;5034262;28;20183;-65
2022/03/25 07:51:04;;;;;;;17.60;10.63;;;;;;;17.09;30.73;-24293.34;5033000;28;20170;-65
2022/03/25 07:53:31;;;;;;;18.05;10.20;;;;;;;16.93;30.64;-24288.88;5009389;28;20548;-65
2022/03/25 07:55:57;;;;;;;16.73;10.05;;;;;;;17.19;31.26;-24296.00;5032217;28;20186;-65
2022/03/25 07:58:23;;;;;;;19.98;9.65;;;;;;;17.04;30.11;-24291.81;5033919;28;20531;-65
2022/03/25 08:00:49;;;;;;;18.95;9.73;;;;;;;17.37;30.76;-24301.03;5035268;28;20190;-64
2022/03/25 08:03:16;;;;;;;20.88;10.18;;;;;;;17.34;30.52;-24300.19;5032889;28;20650;-65
2022/03/25 08:05:42;;;;;;;15.98;10.20;;;;;;;17.55;31.08;-24306.06;5033605;28;20215;-65
2022/03/25 08:08:09;;;;;;;18.60;10.05;;;;;;;17.42;31.14;-24302.28;5032980;28;20194;-65
2022/03/25 08:10:35;;;;;;;19.77;10.65;;;;;;;17.60;29.97;-24307.47;5034452;28;20634;-66
2022/03/25 08:13:02;;;;;;;19.42;10.48;;;;;;;17.98;30.12;-24317.91;5034082;28;20615;-65
2022/03/25 08:15:28;;;;;;;27.48;12.25;;;;;;;17.80;27.89;-24312.75;5031859;28;20183;-65
2022/03/25 08:17:57;;;;;;;22.95;11.88;;;;;;;17.86;28.21;-24314.56;5033283;28;20661;-66
2022/03/25 08:20:27;;;;;;;26.83;11.52;;;;;;;18.19;27.37;-24323.63;5034093;28;20171;-65
2022/03/25 08:22:55;;;;;;;35.85;11.85;;;;;;;17.73;27.87;-24310.81;5033892;28;21570;-65
2022/03/25 08:28:04;;;;;;;26.48;11.88;;;;;;;18.20;27.64;-24323.91;5033149;28;20197;-66
2022/03/25 08:30:33;;;;;;;22.88;11.73;;;;;;;18.54;27.37;-24333.38;5033150;28;20179;-64
2022/03/25 08:33:01;;;;;;;23.58;10.82;;;;;;;18.50;28.51;-24332.13;5033896;28;20858;-65
2022/03/25 08:35:27;;;;;;;26.08;12.32;;;;;;;18.59;27.46;-24334.63;5031218;28;20186;-64
2022/03/25 08:37:54;;;;;;;40.35;12.80;;;;;;;18.42;25.96;-24330.03;5033252;28;20206;-64
2022/03/25 08:40:21;;;;;;;20.98;12.63;;;;;;;18.63;26.45;-24335.75;5034207;28;20225;-64
2022/03/25 08:42:47;;;;;;;34.45;12.18;;;;;;;18.36;26.37;-24328.38;5033079;28;20175;-66
2022/03/25 08:45:14;;;;;;;29.38;12.88;;;;;;;18.49;26.45;-24331.84;5035272;28;20191;-64
2022/03/25 08:47:43;;;;;;;23.55;11.90;;;;;;;18.19;26.92;-24323.50;5025755;28;20646;-64
2022/03/25 08:50:13;;;;;;;57.72;15.02;;;;;;;19.15;26.36;-24349.94;5022255;28;20658;-65
2022/03/25 08:52:40;;;;;;;56.97;15.32;;;;;;;18.57;26.13;-24333.94;5030801;28;20245;-65
2022/03/25 08:55:07;;;;;;;31.45;14.18;;;;;;;18.63;25.80;-24335.63;5030740;28;20190;-65
2022/03/25 08:57:33;;;;;;;40.55;14.30;;;;;;;18.84;26.33;-24341.47;5030053;28;20231;-65
2022/03/25 08:59:58;;;;;;;43.55;14.02;;;;;;;19.11;24.98;-24348.84;5031164;28;20253;-65
2022/03/25 09:02:24;;;;;;;45.80;14.52;;;;;;;19.11;25.03;-24348.97;5012569;28;20195;-65
2022/03/25 09:04:49;;;;;;;37.35;13.25;;;;;;;18.78;25.23;-24339.78;5030623;28;20182;-65
2022/03/25 09:07:15;;;;;;;30.77;13.48;;;;;;;19.16;25.39;-24350.38;5030874;28;20184;-65
2022/03/25 09:09:40;;;;;;;23.38;13.52;;;;;;;18.84;25.15;-24341.47;5030923;28;20225;-65
2022/03/25 09:12:08;;;;;;;39.40;14.05;;;;;;;19.24;25.29;-24352.47;5030612;28;20546;-65
2022/03/25 09:14:33;;;;;;;38.47;13.63;;;;;;;19.25;25.15;-24352.88;5031099;28;20199;-65
2022/03/25 09:16:59;;;;;;;26.33;12.35;;;;;;;19.07;25.30;-24347.72;5033933;28;20230;-65
2022/03/25 09:19:24;;;;;;;35.85;13.93;;;;;;;19.13;25.14;-24349.53;5034283;28;20175;-65
2022/03/25 09:21:50;;;;;;;29.55;14.20;;;;;;;19.47;25.57;-24358.84;5034813;28;20179;-64
2022/03/25 09:24:15;;;;;;;34.63;14.40;;;;;;;19.52;24.34;-24360.13;5034647;28;20221;-64
2022/03/25 09:26:41;;;;;;;29.88;13.40;;;;;;;18.59;25.30;-24334.50;5033631;28;20183;-63
2022/03/25 09:29:08;;;;;;;26.42;12.73;;;;;;;19.49;25.01;-24359.41;5033938;28;20178;-64
2022/03/25 09:31:34;;;;;;;28.77;13.02;;;;;;;19.42;25.43;-24357.59;5034388;28;20678;-65
2022/03/25 09:36:43;;;;;;;23.52;13.13;;;;;;;19.65;25.41;-24363.72;5034330;28;20457;-65
2022/03/25 09:39:09;;;;;;;20.90;12.40;;;;;;;19.69;24.62;-24364.84;5034024;28;20254;-65
2022/03/25 09:41:36;;;;;;;19.85;12.60;;;;;;;19.40;24.49;-24356.91;5034003;28;20265;-65
2022/03/25 09:44:03;;;;;;;32.20;12.63;;;;;;;19.41;24.38;-24357.34;5033913;28;20187;-65
2022/03/25 09:46:28;;;;;;;25.92;12.93;;;;;;;19.76;24.94;-24366.94;5033292;28;20183;-65
2022/03/25 09:48:54;;;;;;;22.92;12.27;;;;;;;20.10;24.46;-24376.09;5016313;28;20179;-65
2022/03/25 09:51:19;;;;;;;23.35;13.00;;;;;;;19.84;24.65;-24369.00;5038660;28;20265;-65
2022/03/25 09:53:46;;;;;;;26.15;13.65;;;;;;;19.93;23.67;-24371.50;5016495;28;20187;-66
2022/03/25 09:56:11;;;;;;;21.92;12.48;;;;;;;19.60;23.86;-24362.34;5034278;28;20252;-65
2022/03/25 09:58:37;;;;;;;21.85;12.50;;;;;;;19.41;25.40;-24357.34;5034158;28;20183;-64
2022/03/25 10:01:02;;;;;;;27.15;13.27;;;;;;;19.37;26.00;-24356.22;5033643;28;20253;-64
2022/03/25 10:03:36;;;;;;;25.70;13.02;;;;;;;19.32;25.58;-24354.81;5031902;28;20183;-64
2022/03/25 10:06:04;;;;;;;23.55;13.00;;;;;;;19.63;24.97;-24363.31;5032768;28;20218;-64
2022/03/25 10:08:31;;;;;;;20.88;12.45;;;;;;;19.80;25.10;-24368.03;5032969;28;20781;-64
2022/03/25 10:10:56;;;;;;;21.58;12.25;;;;;;;19.94;24.05;-24371.78;5033208;28;20171;-64
2022/03/25 10:13:22;;;;;;;22.40;12.52;;;;;;;20.00;24.36;-24373.47;5033195;28;20641;-64
2022/03/25 10:15:47;;;;;;;19.88;12.18;;;;;;;19.93;23.79;-24371.38;5035455;28;20196;-64
2022/03/25 10:18:13;;;;;;;19.30;12.20;;;;;;;20.10;25.21;-24376.25;5032775;28;20248;-65
2022/03/25 10:20:41;;;;;;;31.00;12.02;;;;;;;20.69;24.20;-24392.34;5033031;28;20662;-65
2022/03/25 10:23:14;;;;;;;19.27;12.40;;;;;;;20.32;23.95;-24382.06;5032629;28;20189;-65
2022/03/25 10:26:00;;;;;;;19.27;12.23;;;;;;;20.27;23.97;-24380.97;5032749;28;20278;-65
2022/03/25 10:28:40;;;;;;;23.40;12.98;;;;;;;19.92;23.76;-24371.09;5032694;28;20179;-65
2022/03/25 10:31:11;;;;;;;26.55;12.48;;;;;;;20.16;24.00;-24377.75;5032637;28;20201;-65
2022/03/25 10:33:47;;;;;;;19.80;10.55;;;;;;;19.74;22.32;-24366.38;5032617;28;20174;-65
2022/03/25 10:36:14;;;;;;;18.60;9.50;;;;;;;19.54;22.51;-24360.66;5030805;28;20253;-65
2022/03/25 10:38:41;;;;;;;21.52;10.77;;;;;;;19.07;24.28;-24347.72;5033166;28;20175;-65
2022/03/25 10:41:07;;;;;;;18.77;10.98;;;;;;;18.81;23.65;-24340.78;5033719;28;20201;-65
2022/03/25 10:43:33;;;;;;;19.20;10.38;;;;;;;19.04;23.52;-24347.03;5033487;28;20207;-64
2022/03/25 10:45:58;;;;;;;25.27;8.85;;;;;;;19.40;22.03;-24356.91;5027853;28;20187;-64
2022/03/25 10:48:24;;;;;;;24.73;8.38;;;;;;;19.51;21.29;-24359.97;5015163;28;20191;-64
2022/03/25 10:51:01;;;;;;;18.30;8.80;;;;;;;19.39;21.10;-24356.78;5032803;28;20241;-64
2022/03/25 10:53:29;;;;;;;31.20;8.63;;;;;;;19.68;21.18;-24364.56;5032253;28;20626;-64
2022/03/25 10:55:59;;;;;;;18.23;9.30;;;;;;;19.58;21.65;-24361.78;5031768;28;20186;-64
2022/03/25 10:58:26;;;;;;;31.52;9.40;;;;;;;19.96;21.31;-24372.22;5033876;28;20183;-64
2022/03/25 11:00:51;;;;;;;30.77;9.15;;;;;;;20.03;20.30;-24374.28;5032692;28;20571;-65
2022/03/25 11:03:17;;;;;;;30.38;10.05;;;;;;;19.22;20.48;-24352.03;5032450;28;20270;-65
2022/03/25 11:05:43;;;;;;;13.90;8.43;;;;;;;19.76;19.97;-24366.78;5032273;28;20361;-64
2022/03/25 11:08:09;;;;;;;16.08;7.95;;;;;;;20.10;19.44;-24376.09;5037645;28;20657;-65
2022/03/25 11:10:36;;;;;;;27.50;7.47;;;;;;;19.58;19.51;-24361.91;5014961;28;20187;-64
2022/03/25 11:13:05;;;;;;;17.30;7.80;;;;;;;20.10;19.16;-24376.25;5032551;28;20175;-65
2022/03/25 11:15:32;;;;;;;19.17;8.30;;;;;;;19.69;18.95;-24364.84;5032453;28;20184;-64
2022/03/25 11:17:58;;;;;;;17.10;6.65;;;;;;;19.96;18.83;-24372.22;5032213;28;20518;-64
2022/03/25 11:20:27;;;;;;;37.28;8.13;;;;;;;19.73;18.71;-24366.09;5032654;28;20227;-64